sensor_id;sensor_type;location;lat;lon;timestamp;P1;durP1;ratioP1;P2;durP2;ratioP2
40635;SDS011;26642;55.766;37.828;2023-05-27T00:00:06;14.32;;;10.10;;
40635;SDS011;26642;55.766;37.828;2023-05-27T00:02:33;11.70;;;10.00;;
40635;SDS011;26642;55.766;37.828;2023-05-27T00:04:59;11.40;;;9.93;;
40635;SDS011;26642;55.766;37.828;2023-05-27T00:07:26;12.63;;;10.07;;
40635;SDS011;26642;55.766;37.828;2023-05-27T00:09:53;13.88;;;10.10;;
40635;SDS011;26642;55.766;37.828;2023-05-27T00:12:19;20.02;;;9.65;;
40635;SDS011;26642;55.766;37.828;2023-05-27T00:14:45;14.30;;;10.80;;
40635;SDS011;26642;55.766;37.828;2023-05-27T00:17:12;16.25;;;10.05;;
40635;SDS011;26642;55.766;37.828;2023-05-27T00:19:41;11.45;;;9.63;;
40635;SDS011;26642;55.766;37.828;2023-05-27T00:22:08;13.27;;;10.30;;
40635;SDS011;26642;55.766;37.828;2023-05-27T00:24:34;12.40;;;10.18;;
40635;SDS011;26642;55.766;37.828;2023-05-27T00:27:08;14.02;;;10.05;;
40635;SDS011;26642;55.766;37.828;2023-05-27T00:29:36;15.65;;;10.55;;
40635;SDS011;26642;55.766;37.828;2023-05-27T00:32:02;11.18;;;9.68;;
40635;SDS011;26642;55.766;37.828;2023-05-27T00:34:31;12.80;;;10.18;;
40635;SDS011;26642;55.766;37.828;2023-05-27T00:36:59;11.90;;;9.35;;
40635;SDS011;26642;55.766;37.828;2023-05-27T00:39:25;13.60;;;9.95;;
40635;SDS011;26642;55.766;37.828;2023-05-27T00:41:51;14.63;;;9.73;;
40635;SDS011;26642;55.766;37.828;2023-05-27T00:44:17;11.15;;;9.18;;
40635;SDS011;26642;55.766;37.828;2023-05-27T00:46:44;10.70;;;9.27;;
40635;SDS011;26642;55.766;37.828;2023-05-27T00:49:12;13.88;;;9.82;;
40635;SDS011;26642;55.766;37.828;2023-05-27T00:51:38;16.45;;;10.35;;
40635;SDS011;26642;55.766;37.828;2023-05-27T00:54:05;13.15;;;9.63;;
40635;SDS011;26642;55.766;37.828;2023-05-27T00:56:32;14.18;;;10.45;;
40635;SDS011;26642;55.766;37.828;2023-05-27T00:58:58;11.10;;;9.77;;
40635;SDS011;26642;55.766;37.828;2023-05-27T01:01:25;15.13;;;9.35;;
40635;SDS011;26642;55.766;37.828;2023-05-27T01:03:51;13.88;;;10.13;;
40635;SDS011;26642;55.766;37.828;2023-05-27T01:06:24;16.52;;;10.35;;
40635;SDS011;26642;55.766;37.828;2023-05-27T01:12:08;14.55;;;9.07;;
40635;SDS011;26642;55.766;37.828;2023-05-27T01:14:57;12.77;;;8.70;;
40635;SDS011;26642;55.766;37.828;2023-05-27T01:17:24;14.52;;;9.65;;
40635;SDS011;26642;55.766;37.828;2023-05-27T01:19:52;15.85;;;9.32;;
40635;SDS011;26642;55.766;37.828;2023-05-27T01:22:19;10.85;;;9.20;;
40635;SDS011;26642;55.766;37.828;2023-05-27T01:24:49;11.00;;;9.20;;
40635;SDS011;26642;55.766;37.828;2023-05-27T01:27:15;13.15;;;9.82;;
40635;SDS011;26642;55.766;37.828;2023-05-27T01:29:42;13.23;;;9.75;;
40635;SDS011;26642;55.766;37.828;2023-05-27T01:32:27;10.77;;;8.85;;
40635;SDS011;26642;55.766;37.828;2023-05-27T01:35:21;12.57;;;9.13;;
40635;SDS011;26642;55.766;37.828;2023-05-27T01:37:48;10.30;;;8.82;;
40635;SDS011;26642;55.766;37.828;2023-05-27T01:40:17;11.68;;;9.40;;
40635;SDS011;26642;55.766;37.828;2023-05-27T01:42:44;11.02;;;9.38;;
40635;SDS011;26642;55.766;37.828;2023-05-27T01:45:11;10.80;;;9.70;;
40635;SDS011;26642;55.766;37.828;2023-05-27T01:47:39;10.32;;;8.63;;
40635;SDS011;26642;55.766;37.828;2023-05-27T01:50:05;15.48;;;9.00;;
40635;SDS011;26642;55.766;37.828;2023-05-27T01:52:32;10.55;;;9.05;;
40635;SDS011;26642;55.766;37.828;2023-05-27T01:54:59;10.43;;;9.27;;
40635;SDS011;26642;55.766;37.828;2023-05-27T01:57:26;12.90;;;9.57;;
40635;SDS011;26642;55.766;37.828;2023-05-27T01:59:52;11.02;;;8.88;;
40635;SDS011;26642;55.766;37.828;2023-05-27T02:02:18;10.90;;;9.15;;
40635;SDS011;26642;55.766;37.828;2023-05-27T02:04:44;13.10;;;9.40;;
40635;SDS011;26642;55.766;37.828;2023-05-27T02:07:10;11.07;;;9.02;;
40635;SDS011;26642;55.766;37.828;2023-05-27T02:09:36;11.40;;;9.32;;
40635;SDS011;26642;55.766;37.828;2023-05-27T02:12:02;9.18;;;8.27;;
40635;SDS011;26642;55.766;37.828;2023-05-27T02:14:31;8.90;;;8.10;;
40635;SDS011;26642;55.766;37.828;2023-05-27T02:16:57;10.38;;;8.35;;
40635;SDS011;26642;55.766;37.828;2023-05-27T02:19:24;13.35;;;8.55;;
40635;SDS011;26642;55.766;37.828;2023-05-27T02:21:50;9.77;;;8.55;;
40635;SDS011;26642;55.766;37.828;2023-05-27T02:24:16;8.55;;;7.75;;
40635;SDS011;26642;55.766;37.828;2023-05-27T02:26:42;9.00;;;8.00;;
40635;SDS011;26642;55.766;37.828;2023-05-27T02:29:08;10.32;;;7.75;;
40635;SDS011;26642;55.766;37.828;2023-05-27T02:31:34;8.50;;;7.72;;
40635;SDS011;26642;55.766;37.828;2023-05-27T02:34:00;9.65;;;8.15;;
40635;SDS011;26642;55.766;37.828;2023-05-27T02:36:27;11.13;;;8.23;;
40635;SDS011;26642;55.766;37.828;2023-05-27T02:38:54;10.43;;;7.90;;
40635;SDS011;26642;55.766;37.828;2023-05-27T02:41:20;8.48;;;7.68;;
40635;SDS011;26642;55.766;37.828;2023-05-27T02:43:46;8.82;;;7.93;;
40635;SDS011;26642;55.766;37.828;2023-05-27T02:46:13;8.85;;;7.72;;
40635;SDS011;26642;55.766;37.828;2023-05-27T02:48:41;9.60;;;7.78;;
40635;SDS011;26642;55.766;37.828;2023-05-27T02:51:07;10.10;;;8.00;;
40635;SDS011;26642;55.766;37.828;2023-05-27T02:53:33;8.95;;;7.90;;
40635;SDS011;26642;55.766;37.828;2023-05-27T02:56:00;12.48;;;8.38;;
40635;SDS011;26642;55.766;37.828;2023-05-27T02:58:26;9.32;;;7.55;;
40635;SDS011;26642;55.766;37.828;2023-05-27T03:00:52;10.18;;;8.80;;
40635;SDS011;26642;55.766;37.828;2023-05-27T03:03:18;10.90;;;8.63;;
40635;SDS011;26642;55.766;37.828;2023-05-27T03:05:45;11.30;;;7.47;;
40635;SDS011;26642;55.766;37.828;2023-05-27T03:08:11;8.02;;;7.22;;
40635;SDS011;26642;55.766;37.828;2023-05-27T03:10:37;10.65;;;7.43;;
40635;SDS011;26642;55.766;37.828;2023-05-27T03:13:03;8.75;;;7.50;;
40635;SDS011;26642;55.766;37.828;2023-05-27T03:15:29;8.15;;;7.03;;
40635;SDS011;26642;55.766;37.828;2023-05-27T03:17:55;9.57;;;6.97;;
40635;SDS011;26642;55.766;37.828;2023-05-27T03:20:22;6.97;;;6.28;;
40635;SDS011;26642;55.766;37.828;2023-05-27T03:22:49;7.22;;;6.60;;
40635;SDS011;26642;55.766;37.828;2023-05-27T03:25:15;7.50;;;6.70;;
40635;SDS011;26642;55.766;37.828;2023-05-27T03:27:42;9.95;;;6.78;;
40635;SDS011;26642;55.766;37.828;2023-05-27T03:30:12;6.45;;;5.85;;
40635;SDS011;26642;55.766;37.828;2023-05-27T03:32:43;12.55;;;6.40;;
40635;SDS011;26642;55.766;37.828;2023-05-27T03:35:10;5.80;;;5.30;;
40635;SDS011;26642;55.766;37.828;2023-05-27T03:37:36;6.80;;;6.10;;
40635;SDS011;26642;55.766;37.828;2023-05-27T03:40:05;6.47;;;5.88;;
40635;SDS011;26642;55.766;37.828;2023-05-27T03:42:31;6.72;;;5.50;;
40635;SDS011;26642;55.766;37.828;2023-05-27T03:44:59;9.57;;;5.70;;
40635;SDS011;26642;55.766;37.828;2023-05-27T03:47:26;6.45;;;5.82;;
40635;SDS011;26642;55.766;37.828;2023-05-27T03:49:52;8.38;;;5.50;;
40635;SDS011;26642;55.766;37.828;2023-05-27T03:52:18;7.35;;;5.20;;
40635;SDS011;26642;55.766;37.828;2023-05-27T03:54:44;6.00;;;5.40;;
40635;SDS011;26642;55.766;37.828;2023-05-27T03:57:12;7.50;;;5.85;;
40635;SDS011;26642;55.766;37.828;2023-05-27T03:59:38;5.93;;;5.32;;
40635;SDS011;26642;55.766;37.828;2023-05-27T04:02:04;8.50;;;5.50;;
40635;SDS011;26642;55.766;37.828;2023-05-27T04:04:30;6.53;;;5.40;;
40635;SDS011;26642;55.766;37.828;2023-05-27T04:06:56;6.70;;;5.18;;
40635;SDS011;26642;55.766;37.828;2023-05-27T04:09:22;5.72;;;5.20;;
40635;SDS011;26642;55.766;37.828;2023-05-27T04:11:48;6.40;;;5.55;;
40635;SDS011;26642;55.766;37.828;2023-05-27T04:14:14;6.30;;;4.57;;
40635;SDS011;26642;55.766;37.828;2023-05-27T04:16:40;5.55;;;5.00;;
40635;SDS011;26642;55.766;37.828;2023-05-27T04:19:06;5.22;;;4.75;;
40635;SDS011;26642;55.766;37.828;2023-05-27T04:21:33;4.75;;;4.32;;
40635;SDS011;26642;55.766;37.828;2023-05-27T04:24:02;7.03;;;4.55;;
40635;SDS011;26642;55.766;37.828;2023-05-27T04:26:29;5.47;;;4.90;;
40635;SDS011;26642;55.766;37.828;2023-05-27T04:28:56;6.38;;;5.38;;
40635;SDS011;26642;55.766;37.828;2023-05-27T04:31:26;6.95;;;4.75;;
40635;SDS011;26642;55.766;37.828;2023-05-27T04:34:02;4.93;;;4.13;;
40635;SDS011;26642;55.766;37.828;2023-05-27T04:36:29;6.68;;;4.32;;
40635;SDS011;26642;55.766;37.828;2023-05-27T04:39:10;4.72;;;4.28;;
40635;SDS011;26642;55.766;37.828;2023-05-27T04:41:40;4.93;;;3.88;;
40635;SDS011;26642;55.766;37.828;2023-05-27T04:44:27;4.75;;;4.35;;
40635;SDS011;26642;55.766;37.828;2023-05-27T04:46:55;4.68;;;4.15;;
40635;SDS011;26642;55.766;37.828;2023-05-27T04:49:21;3.72;;;3.42;;
40635;SDS011;26642;55.766;37.828;2023-05-27T04:51:47;4.18;;;3.78;;
40635;SDS011;26642;55.766;37.828;2023-05-27T04:54:17;8.65;;;3.90;;
40635;SDS011;26642;55.766;37.828;2023-05-27T04:56:43;5.35;;;3.63;;
40635;SDS011;26642;55.766;37.828;2023-05-27T04:59:19;3.97;;;3.65;;
40635;SDS011;26642;55.766;37.828;2023-05-27T05:01:47;5.40;;;3.75;;
40635;SDS011;26642;55.766;37.828;2023-05-27T05:04:55;5.25;;;3.90;;
40635;SDS011;26642;55.766;37.828;2023-05-27T05:07:22;5.95;;;3.53;;
40635;SDS011;26642;55.766;37.828;2023-05-27T05:09:49;3.88;;;3.42;;
40635;SDS011;26642;55.766;37.828;2023-05-27T05:12:23;6.07;;;3.17;;
40635;SDS011;26642;55.766;37.828;2023-05-27T05:14:51;5.78;;;3.65;;
40635;SDS011;26642;55.766;37.828;2023-05-27T05:17:18;4.13;;;3.63;;
40635;SDS011;26642;55.766;37.828;2023-05-27T05:19:45;4.00;;;3.13;;
40635;SDS011;26642;55.766;37.828;2023-05-27T05:22:11;4.93;;;3.40;;
40635;SDS011;26642;55.766;37.828;2023-05-27T05:24:45;3.63;;;3.13;;
40635;SDS011;26642;55.766;37.828;2023-05-27T05:27:12;4.45;;;3.20;;
40635;SDS011;26642;55.766;37.828;2023-05-27T05:29:38;4.10;;;3.58;;
40635;SDS011;26642;55.766;37.828;2023-05-27T05:32:04;6.10;;;3.17;;
40635;SDS011;26642;55.766;37.828;2023-05-27T05:34:32;3.83;;;2.72;;
40635;SDS011;26642;55.766;37.828;2023-05-27T05:36:58;3.75;;;3.30;;
40635;SDS011;26642;55.766;37.828;2023-05-27T05:39:24;3.28;;;2.80;;
40635;SDS011;26642;55.766;37.828;2023-05-27T05:41:52;4.93;;;3.03;;
40635;SDS011;26642;55.766;37.828;2023-05-27T05:44:18;6.28;;;3.00;;
40635;SDS011;26642;55.766;37.828;2023-05-27T05:46:45;3.30;;;3.00;;
40635;SDS011;26642;55.766;37.828;2023-05-27T05:49:12;5.15;;;3.10;;
40635;SDS011;26642;55.766;37.828;2023-05-27T05:51:42;4.95;;;2.58;;
40635;SDS011;26642;55.766;37.828;2023-05-27T05:54:08;6.72;;;3.10;;
40635;SDS011;26642;55.766;37.828;2023-05-27T05:56:40;3.95;;;2.67;;
40635;SDS011;26642;55.766;37.828;2023-05-27T05:59:06;7.10;;;2.67;;
40635;SDS011;26642;55.766;37.828;2023-05-27T06:01:33;3.60;;;2.70;;
40635;SDS011;26642;55.766;37.828;2023-05-27T06:03:59;4.30;;;2.67;;
40635;SDS011;26642;55.766;37.828;2023-05-27T06:06:33;2.80;;;2.40;;
40635;SDS011;26642;55.766;37.828;2023-05-27T06:09:25;8.45;;;2.72;;
40635;SDS011;26642;55.766;37.828;2023-05-27T06:11:56;4.45;;;2.47;;
40635;SDS011;26642;55.766;37.828;2023-05-27T06:14:22;4.70;;;2.38;;
40635;SDS011;26642;55.766;37.828;2023-05-27T06:16:50;7.82;;;2.65;;
40635;SDS011;26642;55.766;37.828;2023-05-27T06:19:16;4.18;;;2.45;;
40635;SDS011;26642;55.766;37.828;2023-05-27T06:21:42;4.25;;;2.55;;
40635;SDS011;26642;55.766;37.828;2023-05-27T06:24:27;6.03;;;2.30;;
40635;SDS011;26642;55.766;37.828;2023-05-27T06:27:03;6.07;;;2.80;;
40635;SDS011;26642;55.766;37.828;2023-05-27T06:29:29;4.90;;;2.30;;
40635;SDS011;26642;55.766;37.828;2023-05-27T06:31:56;4.68;;;2.47;;
40635;SDS011;26642;55.766;37.828;2023-05-27T06:34:22;4.20;;;2.45;;
40635;SDS011;26642;55.766;37.828;2023-05-27T06:36:48;4.18;;;2.47;;
40635;SDS011;26642;55.766;37.828;2023-05-27T06:39:15;2.78;;;2.40;;
40635;SDS011;26642;55.766;37.828;2023-05-27T06:41:41;5.68;;;2.33;;
40635;SDS011;26642;55.766;37.828;2023-05-27T06:44:42;4.32;;;2.30;;
40635;SDS011;26642;55.766;37.828;2023-05-27T06:47:18;5.72;;;2.97;;
40635;SDS011;26642;55.766;37.828;2023-05-27T06:49:44;10.25;;;2.72;;
40635;SDS011;26642;55.766;37.828;2023-05-27T06:52:11;4.55;;;2.35;;
40635;SDS011;26642;55.766;37.828;2023-05-27T06:54:55;5.10;;;2.30;;
40635;SDS011;26642;55.766;37.828;2023-05-27T06:57:40;4.85;;;2.20;;
40635;SDS011;26642;55.766;37.828;2023-05-27T07:00:13;4.60;;;2.15;;
40635;SDS011;26642;55.766;37.828;2023-05-27T07:02:50;4.68;;;2.17;;
40635;SDS011;26642;55.766;37.828;2023-05-27T07:05:16;3.55;;;2.17;;
40635;SDS011;26642;55.766;37.828;2023-05-27T07:07:42;4.70;;;2.22;;
40635;SDS011;26642;55.766;37.828;2023-05-27T07:10:08;5.82;;;2.53;;
40635;SDS011;26642;55.766;37.828;2023-05-27T07:12:34;6.40;;;2.28;;
40635;SDS011;26642;55.766;37.828;2023-05-27T07:15:19;8.15;;;2.72;;
40635;SDS011;26642;55.766;37.828;2023-05-27T07:17:48;4.85;;;2.15;;
40635;SDS011;26642;55.766;37.828;2023-05-27T07:20:14;10.15;;;2.38;;
40635;SDS011;26642;55.766;37.828;2023-05-27T07:22:41;9.35;;;2.33;;
40635;SDS011;26642;55.766;37.828;2023-05-27T07:25:08;4.35;;;2.13;;
40635;SDS011;26642;55.766;37.828;2023-05-27T07:27:35;4.38;;;2.20;;
40635;SDS011;26642;55.766;37.828;2023-05-27T07:30:02;6.00;;;2.42;;
40635;SDS011;26642;55.766;37.828;2023-05-27T07:32:43;4.78;;;2.00;;
40635;SDS011;26642;55.766;37.828;2023-05-27T07:35:09;3.45;;;1.80;;
40635;SDS011;26642;55.766;37.828;2023-05-27T07:37:35;4.20;;;1.90;;
40635;SDS011;26642;55.766;37.828;2023-05-27T07:40:01;4.03;;;1.88;;
40635;SDS011;26642;55.766;37.828;2023-05-27T07:42:31;5.80;;;2.20;;
40635;SDS011;26642;55.766;37.828;2023-05-27T07:44:57;7.68;;;2.50;;
40635;SDS011;26642;55.766;37.828;2023-05-27T07:47:23;3.30;;;2.20;;
40635;SDS011;26642;55.766;37.828;2023-05-27T07:49:50;2.42;;;1.73;;
40635;SDS011;26642;55.766;37.828;2023-05-27T07:52:34;3.55;;;2.20;;
40635;SDS011;26642;55.766;37.828;2023-05-27T07:55:07;7.43;;;2.22;;
40635;SDS011;26642;55.766;37.828;2023-05-27T07:57:33;4.82;;;2.20;;
40635;SDS011;26642;55.766;37.828;2023-05-27T08:00:00;4.22;;;2.15;;
40635;SDS011;26642;55.766;37.828;2023-05-27T08:02:40;4.20;;;1.92;;
40635;SDS011;26642;55.766;37.828;2023-05-27T08:05:08;3.15;;;2.08;;
40635;SDS011;26642;55.766;37.828;2023-05-27T08:07:55;3.67;;;1.98;;
40635;SDS011;26642;55.766;37.828;2023-05-27T08:10:41;3.05;;;2.00;;
40635;SDS011;26642;55.766;37.828;2023-05-27T08:13:36;3.63;;;2.10;;
40635;SDS011;26642;55.766;37.828;2023-05-27T08:16:16;6.32;;;2.45;;
40635;SDS011;26642;55.766;37.828;2023-05-27T08:18:46;5.40;;;2.10;;
40635;SDS011;26642;55.766;37.828;2023-05-27T08:21:22;4.07;;;1.80;;
40635;SDS011;26642;55.766;37.828;2023-05-27T08:26:23;7.00;;;2.10;;
40635;SDS011;26642;55.766;37.828;2023-05-27T08:29:01;4.28;;;2.00;;
40635;SDS011;26642;55.766;37.828;2023-05-27T08:31:50;3.25;;;1.92;;
40635;SDS011;26642;55.766;37.828;2023-05-27T08:34:19;4.63;;;1.88;;
40635;SDS011;26642;55.766;37.828;2023-05-27T08:36:45;4.32;;;1.95;;
40635;SDS011;26642;55.766;37.828;2023-05-27T08:39:11;3.92;;;1.92;;
40635;SDS011;26642;55.766;37.828;2023-05-27T08:41:47;6.22;;;2.05;;
40635;SDS011;26642;55.766;37.828;2023-05-27T08:44:14;5.22;;;2.38;;
40635;SDS011;26642;55.766;37.828;2023-05-27T08:46:40;5.70;;;2.17;;
40635;SDS011;26642;55.766;37.828;2023-05-27T08:49:07;6.80;;;2.38;;
40635;SDS011;26642;55.766;37.828;2023-05-27T08:51:35;4.63;;;2.45;;
40635;SDS011;26642;55.766;37.828;2023-05-27T08:54:04;5.30;;;2.45;;
40635;SDS011;26642;55.766;37.828;2023-05-27T08:56:31;4.05;;;2.42;;
40635;SDS011;26642;55.766;37.828;2023-05-27T08:59:00;6.78;;;2.40;;
40635;SDS011;26642;55.766;37.828;2023-05-27T09:01:27;5.25;;;2.42;;
40635;SDS011;26642;55.766;37.828;2023-05-27T09:03:56;5.18;;;2.25;;
40635;SDS011;26642;55.766;37.828;2023-05-27T09:06:22;3.88;;;2.67;;
40635;SDS011;26642;55.766;37.828;2023-05-27T09:08:48;5.45;;;2.33;;
40635;SDS011;26642;55.766;37.828;2023-05-27T09:13:47;4.10;;;2.40;;
40635;SDS011;26642;55.766;37.828;2023-05-27T09:16:13;5.85;;;2.40;;
40635;SDS011;26642;55.766;37.828;2023-05-27T09:18:41;4.53;;;2.40;;
40635;SDS011;26642;55.766;37.828;2023-05-27T09:21:07;6.13;;;2.50;;
40635;SDS011;26642;55.766;37.828;2023-05-27T09:23:39;4.53;;;2.47;;
40635;SDS011;26642;55.766;37.828;2023-05-27T09:26:08;5.93;;;2.45;;
40635;SDS011;26642;55.766;37.828;2023-05-27T09:28:36;5.75;;;2.33;;
40635;SDS011;26642;55.766;37.828;2023-05-27T09:31:03;5.88;;;2.60;;
40635;SDS011;26642;55.766;37.828;2023-05-27T09:33:35;4.43;;;2.30;;
40635;SDS011;26642;55.766;37.828;2023-05-27T09:36:05;4.55;;;2.65;;
40635;SDS011;26642;55.766;37.828;2023-05-27T09:38:34;5.80;;;3.13;;
40635;SDS011;26642;55.766;37.828;2023-05-27T09:41:01;9.68;;;2.83;;
40635;SDS011;26642;55.766;37.828;2023-05-27T09:43:28;8.35;;;3.22;;
40635;SDS011;26642;55.766;37.828;2023-05-27T09:46:07;5.53;;;2.88;;
40635;SDS011;26642;55.766;37.828;2023-05-27T09:48:37;4.75;;;2.80;;
40635;SDS011;26642;55.766;37.828;2023-05-27T09:51:04;5.75;;;2.83;;
40635;SDS011;26642;55.766;37.828;2023-05-27T09:53:30;4.82;;;2.63;;
40635;SDS011;26642;55.766;37.828;2023-05-27T09:55:58;6.38;;;2.90;;
40635;SDS011;26642;55.766;37.828;2023-05-27T09:58:24;3.13;;;2.60;;
40635;SDS011;26642;55.766;37.828;2023-05-27T10:00:50;3.20;;;2.67;;
40635;SDS011;26642;55.766;37.828;2023-05-27T10:03:20;5.95;;;3.05;;
40635;SDS011;26642;55.766;37.828;2023-05-27T10:05:49;8.32;;;3.00;;
40635;SDS011;26642;55.766;37.828;2023-05-27T10:08:16;4.85;;;2.85;;
40635;SDS011;26642;55.766;37.828;2023-05-27T10:10:44;4.25;;;2.80;;
40635;SDS011;26642;55.766;37.828;2023-05-27T10:13:12;5.40;;;2.80;;
40635;SDS011;26642;55.766;37.828;2023-05-27T10:15:45;7.18;;;2.88;;
40635;SDS011;26642;55.766;37.828;2023-05-27T10:18:21;4.78;;;2.83;;
40635;SDS011;26642;55.766;37.828;2023-05-27T10:20:52;2.70;;;2.50;;
40635;SDS011;26642;55.766;37.828;2023-05-27T10:23:20;4.03;;;2.75;;
40635;SDS011;26642;55.766;37.828;2023-05-27T10:25:55;4.78;;;2.78;;
40635;SDS011;26642;55.766;37.828;2023-05-27T10:28:32;3.30;;;2.85;;
40635;SDS011;26642;55.766;37.828;2023-05-27T10:33:30;5.78;;;2.58;;
40635;SDS011;26642;55.766;37.828;2023-05-27T10:38:41;4.00;;;2.80;;
40635;SDS011;26642;55.766;37.828;2023-05-27T10:41:08;6.60;;;2.55;;
40635;SDS011;26642;55.766;37.828;2023-05-27T10:43:35;3.95;;;2.50;;
40635;SDS011;26642;55.766;37.828;2023-05-27T10:46:02;5.60;;;2.80;;
40635;SDS011;26642;55.766;37.828;2023-05-27T10:48:37;4.88;;;2.78;;
40635;SDS011;26642;55.766;37.828;2023-05-27T10:51:05;2.63;;;2.10;;
40635;SDS011;26642;55.766;37.828;2023-05-27T10:53:34;3.83;;;2.58;;
40635;SDS011;26642;55.766;37.828;2023-05-27T10:56:04;4.18;;;2.50;;
40635;SDS011;26642;55.766;37.828;2023-05-27T10:58:36;4.72;;;2.40;;
40635;SDS011;26642;55.766;37.828;2023-05-27T11:01:10;2.55;;;2.35;;
40635;SDS011;26642;55.766;37.828;2023-05-27T11:03:42;4.47;;;2.60;;
40635;SDS011;26642;55.766;37.828;2023-05-27T11:06:10;3.50;;;2.63;;
40635;SDS011;26642;55.766;37.828;2023-05-27T11:08:36;5.07;;;2.72;;
40635;SDS011;26642;55.766;37.828;2023-05-27T11:11:08;4.03;;;2.72;;
40635;SDS011;26642;55.766;37.828;2023-05-27T11:13:36;4.38;;;2.55;;
40635;SDS011;26642;55.766;37.828;2023-05-27T11:16:07;3.47;;;2.63;;
40635;SDS011;26642;55.766;37.828;2023-05-27T11:18:35;4.57;;;2.75;;
40635;SDS011;26642;55.766;37.828;2023-05-27T11:21:11;4.82;;;2.50;;
40635;SDS011;26642;55.766;37.828;2023-05-27T11:23:41;5.20;;;2.25;;
40635;SDS011;26642;55.766;37.828;2023-05-27T11:26:16;3.58;;;2.30;;
40635;SDS011;26642;55.766;37.828;2023-05-27T11:31:16;3.92;;;2.10;;
40635;SDS011;26642;55.766;37.828;2023-05-27T11:33:43;2.70;;;2.22;;
40635;SDS011;26642;55.766;37.828;2023-05-27T11:36:13;2.40;;;2.20;;
40635;SDS011;26642;55.766;37.828;2023-05-27T11:38:48;4.32;;;2.50;;
40635;SDS011;26642;55.766;37.828;2023-05-27T11:41:15;3.47;;;2.53;;
40635;SDS011;26642;55.766;37.828;2023-05-27T11:44:03;5.65;;;2.63;;
40635;SDS011;26642;55.766;37.828;2023-05-27T11:46:37;6.03;;;2.67;;
40635;SDS011;26642;55.766;37.828;2023-05-27T11:49:05;3.30;;;2.40;;
40635;SDS011;26642;55.766;37.828;2023-05-27T11:51:33;4.22;;;2.28;;
40635;SDS011;26642;55.766;37.828;2023-05-27T11:54:01;4.57;;;2.55;;
40635;SDS011;26642;55.766;37.828;2023-05-27T11:56:28;3.72;;;2.22;;
40635;SDS011;26642;55.766;37.828;2023-05-27T11:58:54;2.70;;;2.38;;
40635;SDS011;26642;55.766;37.828;2023-05-27T12:01:21;2.33;;;2.00;;
40635;SDS011;26642;55.766;37.828;2023-05-27T12:03:47;2.58;;;1.90;;
40635;SDS011;26642;55.766;37.828;2023-05-27T12:06:13;3.42;;;2.17;;
40635;SDS011;26642;55.766;37.828;2023-05-27T12:08:42;2.83;;;1.83;;
40635;SDS011;26642;55.766;37.828;2023-05-27T12:11:09;2.50;;;2.10;;
40635;SDS011;26642;55.766;37.828;2023-05-27T12:13:35;3.53;;;2.17;;
40635;SDS011;26642;55.766;37.828;2023-05-27T12:16:01;3.80;;;2.38;;
40635;SDS011;26642;55.766;37.828;2023-05-27T12:18:28;2.95;;;1.95;;
40635;SDS011;26642;55.766;37.828;2023-05-27T12:20:55;4.65;;;2.35;;
40635;SDS011;26642;55.766;37.828;2023-05-27T12:23:21;3.42;;;2.38;;
40635;SDS011;26642;55.766;37.828;2023-05-27T12:25:47;3.10;;;2.08;;
40635;SDS011;26642;55.766;37.828;2023-05-27T12:28:13;3.17;;;2.00;;
40635;SDS011;26642;55.766;37.828;2023-05-27T12:30:39;3.33;;;1.95;;
40635;SDS011;26642;55.766;37.828;2023-05-27T12:33:05;4.70;;;1.73;;
40635;SDS011;26642;55.766;37.828;2023-05-27T12:35:32;4.78;;;2.10;;
40635;SDS011;26642;55.766;37.828;2023-05-27T12:37:59;3.05;;;1.80;;
40635;SDS011;26642;55.766;37.828;2023-05-27T12:40:25;3.25;;;2.22;;
40635;SDS011;26642;55.766;37.828;2023-05-27T12:42:52;4.07;;;1.92;;
40635;SDS011;26642;55.766;37.828;2023-05-27T12:45:18;2.90;;;1.98;;
40635;SDS011;26642;55.766;37.828;2023-05-27T12:47:48;3.85;;;1.95;;
40635;SDS011;26642;55.766;37.828;2023-05-27T12:50:15;3.25;;;2.00;;
40635;SDS011;26642;55.766;37.828;2023-05-27T12:52:42;4.95;;;1.90;;
40635;SDS011;26642;55.766;37.828;2023-05-27T12:55:12;4.93;;;2.10;;
40635;SDS011;26642;55.766;37.828;2023-05-27T12:57:44;4.40;;;1.80;;
40635;SDS011;26642;55.766;37.828;2023-05-27T13:00:15;4.97;;;2.00;;
40635;SDS011;26642;55.766;37.828;2023-05-27T13:02:42;4.50;;;1.90;;
40635;SDS011;26642;55.766;37.828;2023-05-27T13:05:09;4.88;;;2.00;;
40635;SDS011;26642;55.766;37.828;2023-05-27T13:07:36;5.07;;;1.98;;
40635;SDS011;26642;55.766;37.828;2023-05-27T13:10:05;5.05;;;2.00;;
40635;SDS011;26642;55.766;37.828;2023-05-27T13:12:33;3.30;;;2.10;;
40635;SDS011;26642;55.766;37.828;2023-05-27T13:15:00;5.25;;;2.15;;
40635;SDS011;26642;55.766;37.828;2023-05-27T13:17:31;4.45;;;2.15;;
40635;SDS011;26642;55.766;37.828;2023-05-27T13:19:57;3.08;;;2.20;;
40635;SDS011;26642;55.766;37.828;2023-05-27T13:22:23;5.90;;;2.08;;
40635;SDS011;26642;55.766;37.828;2023-05-27T13:24:49;2.88;;;2.05;;
40635;SDS011;26642;55.766;37.828;2023-05-27T13:27:15;5.55;;;2.20;;
40635;SDS011;26642;55.766;37.828;2023-05-27T13:29:41;8.48;;;2.47;;
40635;SDS011;26642;55.766;37.828;2023-05-27T13:32:07;4.80;;;2.00;;
40635;SDS011;26642;55.766;37.828;2023-05-27T13:34:33;4.07;;;2.10;;
40635;SDS011;26642;55.766;37.828;2023-05-27T13:37:00;4.10;;;1.85;;
40635;SDS011;26642;55.766;37.828;2023-05-27T13:39:27;5.90;;;1.83;;
40635;SDS011;26642;55.766;37.828;2023-05-27T13:41:53;4.68;;;2.13;;
40635;SDS011;26642;55.766;37.828;2023-05-27T13:44:19;4.95;;;2.10;;
40635;SDS011;26642;55.766;37.828;2023-05-27T13:46:45;8.77;;;2.22;;
40635;SDS011;26642;55.766;37.828;2023-05-27T13:49:11;2.45;;;1.73;;
40635;SDS011;26642;55.766;37.828;2023-05-27T13:51:43;3.60;;;2.15;;
40635;SDS011;26642;55.766;37.828;2023-05-27T13:54:10;6.18;;;2.20;;
40635;SDS011;26642;55.766;37.828;2023-05-27T13:56:36;7.82;;;2.35;;
40635;SDS011;26642;55.766;37.828;2023-05-27T13:59:02;4.30;;;2.20;;
40635;SDS011;26642;55.766;37.828;2023-05-27T14:01:29;5.28;;;2.05;;
40635;SDS011;26642;55.766;37.828;2023-05-27T14:03:55;4.18;;;2.30;;
40635;SDS011;26642;55.766;37.828;2023-05-27T14:06:22;5.05;;;2.15;;
40635;SDS011;26642;55.766;37.828;2023-05-27T14:08:48;2.40;;;1.70;;
40635;SDS011;26642;55.766;37.828;2023-05-27T14:11:14;3.10;;;2.10;;
40635;SDS011;26642;55.766;37.828;2023-05-27T14:13:40;3.30;;;2.22;;
40635;SDS011;26642;55.766;37.828;2023-05-27T14:16:06;4.30;;;2.08;;
40635;SDS011;26642;55.766;37.828;2023-05-27T14:18:32;4.00;;;2.45;;
40635;SDS011;26642;55.766;37.828;2023-05-27T14:20:59;4.90;;;2.30;;
40635;SDS011;26642;55.766;37.828;2023-05-27T14:23:25;2.58;;;2.13;;
40635;SDS011;26642;55.766;37.828;2023-05-27T14:25:51;4.78;;;1.83;;
40635;SDS011;26642;55.766;37.828;2023-05-27T14:28:17;3.95;;;2.17;;
40635;SDS011;26642;55.766;37.828;2023-05-27T14:30:43;4.43;;;2.10;;
40635;SDS011;26642;55.766;37.828;2023-05-27T14:33:09;2.70;;;2.03;;
40635;SDS011;26642;55.766;37.828;2023-05-27T14:35:35;3.63;;;2.35;;
40635;SDS011;26642;55.766;37.828;2023-05-27T14:38:02;6.03;;;2.03;;
40635;SDS011;26642;55.766;37.828;2023-05-27T14:40:29;5.72;;;2.50;;
40635;SDS011;26642;55.766;37.828;2023-05-27T14:42:55;4.90;;;2.10;;
40635;SDS011;26642;55.766;37.828;2023-05-27T14:45:22;4.95;;;2.17;;
40635;SDS011;26642;55.766;37.828;2023-05-27T14:47:51;4.53;;;2.05;;
40635;SDS011;26642;55.766;37.828;2023-05-27T14:50:20;3.75;;;2.15;;
40635;SDS011;26642;55.766;37.828;2023-05-27T14:52:48;2.95;;;1.77;;
40635;SDS011;26642;55.766;37.828;2023-05-27T14:55:14;2.13;;;1.73;;